LFOHLFOP

Guest
Details From LFOH - Le Havre-Octeville
To LFOP - Rouen Vallee de la Seine
Flight Number -
Tags generated
Created
Modified
Stats Distance 45 nm / 84 km
Max Altitude 4,300 ft / 1,311 m
Waypoints 3
Social Downloads 0
Likes 0
Share VATSIM

Download

Looking for another format? Having issues loading an existing format? Contact us
Advertisement - Login to hide

Notes

Basic altitude profile: - Ascent Rate: 700ft/min - Ascent Speed: 80kts - Cruise Altitude: 5500ft - Cruise Speed: 120kts - Descent Rate: 800ft/min - Descent Speed: 90kts

Route

LFOH KEREX LFOP

ID Type Via Altitude Latitude Longitude Leg Dist Tot Dist Heading (true) Name
O LFOH APT - 0 ft / 0 m 49.53408˚ 0.08846˚ - 0 nm - Le Havre-Octeville
KEREX FIX - 4,300 ft / 1,311 m 49.32661˚ 0.91314˚ 34 nm 34 nm 111° / 111° -
O LFOP APT - 0 ft / 0 m 49.38521˚ 1.17619˚ 10 nm 45 nm 71° / 71° Rouen Vallee de la Seine

Altitude Profile

Advertisement - Login to hide

LFOH

Details ICAO LFOH (LEH)
Name Le Havre-Octeville
Region France
Timezone Europe/Paris (UTC+2.0)
Stats Elevation 311 ft / 95 m (AMSL)
Location 49.534079° 0.088457°
Runways 1
Magnetic Variation 0.118° W

METAR

LFOH 221030Z AUTO 01005KT 350V050 7000 FEW036 OVC062 15/12 Q1015 TEMPO 4000 SHRA BECMG SCT050TCU

Decode

TAF

TAF LFOH 220500Z 2206/2306 VRB02KT 4000 BR NSC BECMG 2206/2208 34010KT 9999 NSW SCT050TCU TEMPO 2208/2212 4000 SHRA BKN050CB TEMPO 2303/2306 BKN006

Decode

Departure Runways

ID Width Length Bearing (true) Bearing (mag) Surface Threshold Offset Overrun Length
04 131 ft / 40 m 7,553 ft / 2,302 m 43.07° 43.19° Asphalt 0 ft / 0 m 0 ft / 0 m
22 131 ft / 40 m 7,553 ft / 2,302 m 223.08° 223.20° Asphalt 0 ft / 0 m 0 ft / 0 m

LFOP

Details ICAO LFOP (URO)
Name Rouen Vallee de la Seine
Region France
Timezone Europe/Paris (UTC+2.0)
Stats Elevation 512 ft / 156 m (AMSL)
Location 49.385211° 1.176192°
Runways 1
Magnetic Variation 0.243° E

METAR

LFOP 221030Z AUTO 34005KT 290V020 CAVOK 20/13 Q1014 TEMPO 3000 SHRA BKN050CB

Decode

TAF

TAF LFOP 220500Z 2206/2306 31005KT 4000 BR NSC BECMG 2206/2208 9999 NSW SCT050TCU TEMPO 2210/2215 3000 SHRA BKN050CB PROB30 TEMPO 2210/2215 TSRA BECMG 2302/2304 4000 BR

Decode

Destination Runways

ID Width Length Bearing (true) Bearing (mag) Surface Threshold Offset Overrun Length
04 148 ft / 45 m 5,577 ft / 1,700 m 41.28° 41.04° Asphalt 0 ft / 0 m 0 ft / 0 m
22 148 ft / 45 m 5,577 ft / 1,700 m 221.29° 221.05° Asphalt 0 ft / 0 m 0 ft / 0 m

Approach Navaids

Runway Type Ident Frequency Range Bearing (true) Bearing (mag) Slope Elevation
22 Localiser RN 110.50 MHz 18 nm / 33 km 221.27° 221.03° - 512 ft / 156 m (AMSL)
22 Glidescope RN 110.50 MHz 10 nm / 19 km 221.28° 221.04° 3.00° 512 ft / 156 m (AMSL)
22 DME RN 110.50 MHz 18 nm / 33 km - - - 571 ft / 174 m (AMSL)

Popular Alternatives